Aeroporto :
LOGIN :

Iscrizione | Disclaimer

   EN    FR    IT 

 










Sommario :    VFR   VFR Marginale   IFR   IFR Intensivo   IFR Molto Intensivo
Visibilità : 
Base nubi : 
>= 8 km
>= 3000ft
5 / 8 km
1000 / 3000 ft
1500m / 5 km
500 / 1000 ft
800 / 1500m
200 / 500 ft
< 800m
< 200 ft
Simboli :   Temporali  Nebbia  Neve Forte  Precipitazioni Forti  Vento > 20 kt
SIGMETs :   Varie  Temporali  Ghiacco  Turbolenza  Onda orograficha  Ceneri Vulcaniche







- Altitudine del aeroporto : 124 ft
- Codice IATA : RNS
- Carte del aeroporto


LFRN - Rennes

ULTIMO METAR :
  • 190030Z AUTO 27004KT 7000 NSC 15/15 Q1007 TEMPO VRB15G30KT 4000 TSRA BKN030CB

METARs OBSOLETI :
  • 190000Z AUTO 21004KT 170V250 8000 NSC 15/15 Q1008 TEMPO VRB15G30KT 4000 TSRA BKN030CB
  • 182330Z AUTO 34006KT 310V010 CAVOK 16/15 Q1007 TEMPO VRB15G30KT 4000 TSRA BKN030CB
  • 182300Z AUTO 31009KT 9999 FEW035 SCT042 BKN120 17/16 Q1007 TEMPO VRB15G30KT 4000 TSRA BKN030CB
  • 182230Z AUTO 26006KT 9999 BKN042/// BKN140/// ///TCU 17/16 Q1008 TEMPO VRB15G30KT 4000 TSRA BKN030CB
  • 182200Z AUTO 27005KT CAVOK 17/16 Q1008 TEMPO VRB15G30KT 4000 TSRA BKN030CB
  • 182130Z AUTO 28005KT 270V330 CAVOK 17/16 Q1008 TEMPO VRB15G30KT 4000 TSRA BKN030CB

TAF TAF LFRN
Valido dal 19 a 00 ore il 20 a 00 ore UTC


182300Z 1900/1924 VRB05KT CAVOK
TEMPO 1900/1903 5000 SHRA BKN050TCU
PROB40
TEMPO 1900/1903 VRB15G30KT 4000 TSRA BKN030CB
PROB30
TEMPO 1900/1903 TSRAGR
TEMPO 1902/1908 BKN012
BECMG 1906/1908 23010KT
TEMPO 1910/1920 5000 SHRA BKN020TCU
PROB30
TEMPO 1912/1918 21015G30KT 4000 TSRA BKN020CB
TEMPO 1917/1920 BKN010
BECMG 1918/1921 31010KT
ATIS : +33 2 99 67 72 50
Nessun NOTAM noto per questo aeroporto.
2 SIGMETs conosciuti per la FIR Brest (LFRR) :
 
Temporali frequenti con grandine
LFRR SIGMET 8 VALID 182300/190100 LFPW
LFRR BREST FIR/UIR FRQ TSGR OBS AT 2245Z WI N5000 W00045 - N5000 W00015 - N4900 W00015 - N4900 W00100 - N5000 W00045 TOP FL330 MOV NE 25KT NC=
Temporali affogati
LFRR SIGMET 7 VALID 182235/190035 LFPW
LFRR BREST FIR/UIR EMBD TS OBS AT 2230Z WI N4800 W00315 - N4700 W00400 - N4730 W00515 - N4815 W00430 - N4800 W00315 TOP FL340 MOV NE 20KT NC=



MetMap, La meteo Aeronautica in un colpo d'occhio ! - Copyright ORBIFLY Dicembre 2007 - Disclaimer

ORBIFLY MET'MAP TEAM :

Programmazione e sviluppo : Alexandra Zaïnal
Concezione e sviluppo : Baudouin d'Aumeries
Co-Programmazione e sviluppo : Marc-Olivier Méhu
Supporto tecnico e logistico : Manuel Goepfert
Aiuto per la traduzione : Arnaldo La Scala

Contatto : metmap@orbifly.com




FONTI E CREDITI :

   NOAA